Terminal Aerodrome Forecast
Issued by NWS

Current Version | Previous Version | Text Only | Print | Product List | Glossary Off
Versions: 1 2 3 4 5 6 7 8 9 10 11 12 13 14 15 16 17 18 19 20 21 22

000
FTUS41 KRLX 242300
TAFCKB
TAF
KCKB 242334Z 2500/2524 18011KT P6SM BKN045
     FM250100 26016G35KT P6SM SHRA VCTS OVC040CB
     FM250200 25012G30KT P6SM SHRA OVC040
     FM250400 25011G22KT P6SM OVC020
     FM250600 25010G20KT P6SM OVC015
     FM251400 26014G22KT P6SM OVC025
     FM251900 25011KT P6SM BKN040=

USA.gov is the U.S. government's official web portal to all federal, state and local government web resources and services.